sensor_id;sensor_type;location;lat;lon;timestamp;temperature;humidity
14995;DHT22;7593;49.006;8.372;2023-12-22T00:00:52;7.90;99.90
14995;DHT22;7593;49.006;8.372;2023-12-22T00:03:19;8.00;99.90
14995;DHT22;7593;49.006;8.372;2023-12-22T00:05:47;8.00;99.90
14995;DHT22;7593;49.006;8.372;2023-12-22T00:08:13;8.00;99.90
14995;DHT22;7593;49.006;8.372;2023-12-22T00:10:40;7.90;99.90
14995;DHT22;7593;49.006;8.372;2023-12-22T00:13:07;8.00;99.90
14995;DHT22;7593;49.006;8.372;2023-12-22T00:15:34;8.00;99.90
14995;DHT22;7593;49.006;8.372;2023-12-22T00:18:00;8.00;99.90
14995;DHT22;7593;49.006;8.372;2023-12-22T00:20:27;8.00;99.90
14995;DHT22;7593;49.006;8.372;2023-12-22T00:22:55;8.00;99.90
14995;DHT22;7593;49.006;8.372;2023-12-22T00:25:22;8.00;99.90
14995;DHT22;7593;49.006;8.372;2023-12-22T00:27:49;8.00;99.90
14995;DHT22;7593;49.006;8.372;2023-12-22T00:30:15;8.00;99.90
14995;DHT22;7593;49.006;8.372;2023-12-22T00:32:42;8.00;99.90
14995;DHT22;7593;49.006;8.372;2023-12-22T00:35:09;7.90;99.90
14995;DHT22;7593;49.006;8.372;2023-12-22T00:37:36;8.00;99.90
14995;DHT22;7593;49.006;8.372;2023-12-22T00:40:05;7.90;99.90
14995;DHT22;7593;49.006;8.372;2023-12-22T00:42:33;7.90;99.90
14995;DHT22;7593;49.006;8.372;2023-12-22T00:45:00;7.90;99.90
14995;DHT22;7593;49.006;8.372;2023-12-22T00:47:27;8.00;99.90
14995;DHT22;7593;49.006;8.372;2023-12-22T00:49:54;8.00;99.90
14995;DHT22;7593;49.006;8.372;2023-12-22T00:52:20;7.90;99.90
14995;DHT22;7593;49.006;8.372;2023-12-22T00:54:47;8.00;99.90
14995;DHT22;7593;49.006;8.372;2023-12-22T00:57:15;8.00;99.90
14995;DHT22;7593;49.006;8.372;2023-12-22T00:59:42;8.00;99.90
14995;DHT22;7593;49.006;8.372;2023-12-22T01:02:13;8.00;99.90
14995;DHT22;7593;49.006;8.372;2023-12-22T01:04:40;8.00;99.90
14995;DHT22;7593;49.006;8.372;2023-12-22T01:07:07;8.00;99.90
14995;DHT22;7593;49.006;8.372;2023-12-22T01:09:34;8.00;99.90
14995;DHT22;7593;49.006;8.372;2023-12-22T01:12:01;8.00;99.90
14995;DHT22;7593;49.006;8.372;2023-12-22T01:14:30;8.10;99.90
14995;DHT22;7593;49.006;8.372;2023-12-22T01:16:57;8.20;99.90
14995;DHT22;7593;49.006;8.372;2023-12-22T01:19:24;8.20;99.90
14995;DHT22;7593;49.006;8.372;2023-12-22T01:21:51;8.20;99.90
14995;DHT22;7593;49.006;8.372;2023-12-22T01:24:18;8.30;99.90
14995;DHT22;7593;49.006;8.372;2023-12-22T01:26:45;8.40;99.90
14995;DHT22;7593;49.006;8.372;2023-12-22T01:29:11;8.50;99.90
14995;DHT22;7593;49.006;8.372;2023-12-22T01:31:39;8.50;99.90
14995;DHT22;7593;49.006;8.372;2023-12-22T01:34:06;8.60;99.90
14995;DHT22;7593;49.006;8.372;2023-12-22T01:36:34;8.60;99.90
14995;DHT22;7593;49.006;8.372;2023-12-22T01:39:01;8.60;99.90
14995;DHT22;7593;49.006;8.372;2023-12-22T01:41:28;8.60;99.90
14995;DHT22;7593;49.006;8.372;2023-12-22T01:43:55;8.60;99.90
14995;DHT22;7593;49.006;8.372;2023-12-22T01:46:22;8.70;99.90
14995;DHT22;7593;49.006;8.372;2023-12-22T01:48:50;8.70;99.90
14995;DHT22;7593;49.006;8.372;2023-12-22T01:51:17;8.80;99.90
14995;DHT22;7593;49.006;8.372;2023-12-22T01:53:44;8.80;99.90
14995;DHT22;7593;49.006;8.372;2023-12-22T01:56:12;8.80;99.90
14995;DHT22;7593;49.006;8.372;2023-12-22T01:58:39;8.80;99.90
14995;DHT22;7593;49.006;8.372;2023-12-22T02:01:07;8.70;99.90
14995;DHT22;7593;49.006;8.372;2023-12-22T02:03:34;8.70;99.90
14995;DHT22;7593;49.006;8.372;2023-12-22T02:06:04;8.70;99.90
14995;DHT22;7593;49.006;8.372;2023-12-22T02:08:32;8.70;99.90
14995;DHT22;7593;49.006;8.372;2023-12-22T02:10:59;8.70;99.90
14995;DHT22;7593;49.006;8.372;2023-12-22T02:13:26;8.60;99.90
14995;DHT22;7593;49.006;8.372;2023-12-22T02:15:59;8.60;99.90
14995;DHT22;7593;49.006;8.372;2023-12-22T02:18:33;8.60;99.90
14995;DHT22;7593;49.006;8.372;2023-12-22T02:21:01;8.60;99.90
14995;DHT22;7593;49.006;8.372;2023-12-22T02:23:29;8.60;99.90
14995;DHT22;7593;49.006;8.372;2023-12-22T02:26:02;8.50;99.90
14995;DHT22;7593;49.006;8.372;2023-12-22T02:28:33;8.40;99.90
14995;DHT22;7593;49.006;8.372;2023-12-22T02:31:06;8.40;99.90
14995;DHT22;7593;49.006;8.372;2023-12-22T02:33:36;8.30;99.90
14995;DHT22;7593;49.006;8.372;2023-12-22T02:36:06;8.30;99.90
14995;DHT22;7593;49.006;8.372;2023-12-22T02:38:37;8.30;99.90
14995;DHT22;7593;49.006;8.372;2023-12-22T02:41:05;8.40;99.90
14995;DHT22;7593;49.006;8.372;2023-12-22T02:43:32;8.30;99.90
14995;DHT22;7593;49.006;8.372;2023-12-22T02:45:59;8.40;99.90
14995;DHT22;7593;49.006;8.372;2023-12-22T02:48:26;8.30;99.90
14995;DHT22;7593;49.006;8.372;2023-12-22T02:50:53;8.30;99.90
14995;DHT22;7593;49.006;8.372;2023-12-22T02:53:19;8.30;99.90
14995;DHT22;7593;49.006;8.372;2023-12-22T02:55:47;8.30;99.90
14995;DHT22;7593;49.006;8.372;2023-12-22T02:58:14;8.30;99.90
14995;DHT22;7593;49.006;8.372;2023-12-22T03:00:41;8.30;99.90
14995;DHT22;7593;49.006;8.372;2023-12-22T03:03:08;8.30;99.90
14995;DHT22;7593;49.006;8.372;2023-12-22T03:05:35;8.40;99.90
14995;DHT22;7593;49.006;8.372;2023-12-22T03:08:02;8.40;99.90
14995;DHT22;7593;49.006;8.372;2023-12-22T03:10:29;8.40;99.90
14995;DHT22;7593;49.006;8.372;2023-12-22T03:12:57;8.40;99.90
14995;DHT22;7593;49.006;8.372;2023-12-22T03:15:24;8.40;99.90
14995;DHT22;7593;49.006;8.372;2023-12-22T03:17:51;8.50;99.90
14995;DHT22;7593;49.006;8.372;2023-12-22T03:20:17;8.50;99.90
14995;DHT22;7593;49.006;8.372;2023-12-22T03:22:44;8.50;99.90
14995;DHT22;7593;49.006;8.372;2023-12-22T03:25:11;8.60;99.90
14995;DHT22;7593;49.006;8.372;2023-12-22T03:27:37;8.60;99.90
14995;DHT22;7593;49.006;8.372;2023-12-22T03:30:06;8.70;99.90
14995;DHT22;7593;49.006;8.372;2023-12-22T03:32:33;8.70;99.90
14995;DHT22;7593;49.006;8.372;2023-12-22T03:34:59;8.60;99.90
14995;DHT22;7593;49.006;8.372;2023-12-22T03:37:26;8.60;99.90
14995;DHT22;7593;49.006;8.372;2023-12-22T03:39:53;8.60;99.90
14995;DHT22;7593;49.006;8.372;2023-12-22T03:42:20;8.60;99.90
14995;DHT22;7593;49.006;8.372;2023-12-22T03:44:46;8.60;99.90
14995;DHT22;7593;49.006;8.372;2023-12-22T03:47:16;8.60;99.90
14995;DHT22;7593;49.006;8.372;2023-12-22T03:49:46;8.50;99.90
14995;DHT22;7593;49.006;8.372;2023-12-22T03:52:15;8.20;99.90
14995;DHT22;7593;49.006;8.372;2023-12-22T03:54:42;7.90;99.90
14995;DHT22;7593;49.006;8.372;2023-12-22T03:57:09;7.70;99.90
14995;DHT22;7593;49.006;8.372;2023-12-22T03:59:45;7.60;99.90
14995;DHT22;7593;49.006;8.372;2023-12-22T04:02:14;7.50;99.90
14995;DHT22;7593;49.006;8.372;2023-12-22T04:04:41;7.50;99.90
14995;DHT22;7593;49.006;8.372;2023-12-22T04:07:11;7.50;99.90
14995;DHT22;7593;49.006;8.372;2023-12-22T04:09:41;7.50;99.90
14995;DHT22;7593;49.006;8.372;2023-12-22T04:12:08;7.60;99.90
14995;DHT22;7593;49.006;8.372;2023-12-22T04:14:35;7.60;99.90
14995;DHT22;7593;49.006;8.372;2023-12-22T04:17:13;7.60;99.90
14995;DHT22;7593;49.006;8.372;2023-12-22T04:19:44;7.70;99.90
14995;DHT22;7593;49.006;8.372;2023-12-22T04:22:16;7.70;99.90
14995;DHT22;7593;49.006;8.372;2023-12-22T04:24:59;7.70;99.90
14995;DHT22;7593;49.006;8.372;2023-12-22T04:27:32;7.80;99.90
14995;DHT22;7593;49.006;8.372;2023-12-22T04:30:03;7.80;99.90
14995;DHT22;7593;49.006;8.372;2023-12-22T04:32:30;7.90;99.90
14995;DHT22;7593;49.006;8.372;2023-12-22T04:35:04;7.90;99.90
14995;DHT22;7593;49.006;8.372;2023-12-22T04:37:31;7.90;99.90
14995;DHT22;7593;49.006;8.372;2023-12-22T04:39:58;7.90;99.90
14995;DHT22;7593;49.006;8.372;2023-12-22T04:42:25;8.10;99.90
14995;DHT22;7593;49.006;8.372;2023-12-22T04:44:52;8.10;99.90
14995;DHT22;7593;49.006;8.372;2023-12-22T04:47:20;8.10;99.90
14995;DHT22;7593;49.006;8.372;2023-12-22T04:49:49;8.20;99.90
14995;DHT22;7593;49.006;8.372;2023-12-22T04:52:17;8.20;99.90
14995;DHT22;7593;49.006;8.372;2023-12-22T04:54:46;8.30;99.90
14995;DHT22;7593;49.006;8.372;2023-12-22T04:57:15;8.30;99.90
14995;DHT22;7593;49.006;8.372;2023-12-22T04:59:47;8.30;99.90
14995;DHT22;7593;49.006;8.372;2023-12-22T05:02:18;8.30;99.90
14995;DHT22;7593;49.006;8.372;2023-12-22T05:04:50;8.40;99.90
14995;DHT22;7593;49.006;8.372;2023-12-22T05:07:20;8.40;99.90
14995;DHT22;7593;49.006;8.372;2023-12-22T05:09:49;8.40;99.90
14995;DHT22;7593;49.006;8.372;2023-12-22T05:12:21;8.40;99.90
14995;DHT22;7593;49.006;8.372;2023-12-22T05:14:48;8.40;99.90
14995;DHT22;7593;49.006;8.372;2023-12-22T05:17:22;8.40;99.90
14995;DHT22;7593;49.006;8.372;2023-12-22T05:19:54;8.50;99.90
14995;DHT22;7593;49.006;8.372;2023-12-22T05:22:25;8.60;99.90
14995;DHT22;7593;49.006;8.372;2023-12-22T05:24:55;8.60;99.90
14995;DHT22;7593;49.006;8.372;2023-12-22T05:27:22;8.60;99.90
14995;DHT22;7593;49.006;8.372;2023-12-22T05:29:49;8.70;99.90
14995;DHT22;7593;49.006;8.372;2023-12-22T05:32:18;8.70;99.90
14995;DHT22;7593;49.006;8.372;2023-12-22T05:34:45;8.70;99.90
14995;DHT22;7593;49.006;8.372;2023-12-22T05:37:14;8.80;99.90
14995;DHT22;7593;49.006;8.372;2023-12-22T05:39:42;8.80;99.90
14995;DHT22;7593;49.006;8.372;2023-12-22T05:42:12;8.80;99.90
14995;DHT22;7593;49.006;8.372;2023-12-22T05:44:40;8.90;99.90
14995;DHT22;7593;49.006;8.372;2023-12-22T05:47:07;8.90;99.90
14995;DHT22;7593;49.006;8.372;2023-12-22T05:49:41;9.00;99.90
14995;DHT22;7593;49.006;8.372;2023-12-22T05:52:16;8.90;99.90
14995;DHT22;7593;49.006;8.372;2023-12-22T05:54:48;8.90;99.90
14995;DHT22;7593;49.006;8.372;2023-12-22T05:57:20;8.90;99.90
14995;DHT22;7593;49.006;8.372;2023-12-22T05:59:51;8.90;99.90
14995;DHT22;7593;49.006;8.372;2023-12-22T06:02:24;8.90;99.90
14995;DHT22;7593;49.006;8.372;2023-12-22T06:04:56;8.90;99.90
14995;DHT22;7593;49.006;8.372;2023-12-22T06:07:25;8.90;99.90
14995;DHT22;7593;49.006;8.372;2023-12-22T06:09:59;8.90;99.90
14995;DHT22;7593;49.006;8.372;2023-12-22T06:12:28;8.90;99.90
14995;DHT22;7593;49.006;8.372;2023-12-22T06:14:59;8.90;99.90
14995;DHT22;7593;49.006;8.372;2023-12-22T06:17:28;9.00;99.90
14995;DHT22;7593;49.006;8.372;2023-12-22T06:20:11;9.00;99.90
14995;DHT22;7593;49.006;8.372;2023-12-22T06:22:40;9.00;99.90
14995;DHT22;7593;49.006;8.372;2023-12-22T06:25:11;8.90;99.90
14995;DHT22;7593;49.006;8.372;2023-12-22T06:27:38;9.00;99.90
14995;DHT22;7593;49.006;8.372;2023-12-22T06:30:06;9.00;99.90
14995;DHT22;7593;49.006;8.372;2023-12-22T06:32:37;8.90;99.90
14995;DHT22;7593;49.006;8.372;2023-12-22T06:35:07;8.90;99.90
14995;DHT22;7593;49.006;8.372;2023-12-22T06:37:35;8.90;99.90
14995;DHT22;7593;49.006;8.372;2023-12-22T06:40:02;8.80;99.90
14995;DHT22;7593;49.006;8.372;2023-12-22T06:42:37;8.80;99.90
14995;DHT22;7593;49.006;8.372;2023-12-22T06:45:16;8.80;99.90
14995;DHT22;7593;49.006;8.372;2023-12-22T06:47:47;8.80;99.90
14995;DHT22;7593;49.006;8.372;2023-12-22T06:50:23;8.80;99.90
14995;DHT22;7593;49.006;8.372;2023-12-22T06:52:52;8.70;99.90
14995;DHT22;7593;49.006;8.372;2023-12-22T06:55:27;8.70;99.90
14995;DHT22;7593;49.006;8.372;2023-12-22T06:58:00;8.70;99.90
14995;DHT22;7593;49.006;8.372;2023-12-22T07:00:27;8.60;99.90
14995;DHT22;7593;49.006;8.372;2023-12-22T07:02:53;8.60;99.90
14995;DHT22;7593;49.006;8.372;2023-12-22T07:05:33;8.60;99.90
14995;DHT22;7593;49.006;8.372;2023-12-22T07:08:04;8.50;99.90
14995;DHT22;7593;49.006;8.372;2023-12-22T07:10:31;8.50;99.90
14995;DHT22;7593;49.006;8.372;2023-12-22T07:12:59;8.50;99.90
14995;DHT22;7593;49.006;8.372;2023-12-22T07:15:26;8.50;99.90
14995;DHT22;7593;49.006;8.372;2023-12-22T07:17:54;8.40;99.90
14995;DHT22;7593;49.006;8.372;2023-12-22T07:20:21;8.50;99.90
14995;DHT22;7593;49.006;8.372;2023-12-22T07:22:48;8.40;99.90
14995;DHT22;7593;49.006;8.372;2023-12-22T07:25:16;8.40;99.90
14995;DHT22;7593;49.006;8.372;2023-12-22T07:27:44;8.30;99.90
14995;DHT22;7593;49.006;8.372;2023-12-22T07:30:13;8.30;99.90
14995;DHT22;7593;49.006;8.372;2023-12-22T07:32:45;8.20;99.90
14995;DHT22;7593;49.006;8.372;2023-12-22T07:35:17;8.20;99.90
14995;DHT22;7593;49.006;8.372;2023-12-22T07:37:44;8.00;99.90
14995;DHT22;7593;49.006;8.372;2023-12-22T07:40:11;7.90;99.90
14995;DHT22;7593;49.006;8.372;2023-12-22T07:42:38;7.80;99.90
14995;DHT22;7593;49.006;8.372;2023-12-22T07:45:06;7.70;99.90
14995;DHT22;7593;49.006;8.372;2023-12-22T07:47:36;7.60;99.90
14995;DHT22;7593;49.006;8.372;2023-12-22T07:50:03;7.50;99.90
14995;DHT22;7593;49.006;8.372;2023-12-22T07:52:33;7.40;99.90
14995;DHT22;7593;49.006;8.372;2023-12-22T07:55:04;7.30;99.90
14995;DHT22;7593;49.006;8.372;2023-12-22T07:57:31;7.30;99.90
14995;DHT22;7593;49.006;8.372;2023-12-22T07:59:58;7.30;99.90
14995;DHT22;7593;49.006;8.372;2023-12-22T08:02:25;7.30;99.90
14995;DHT22;7593;49.006;8.372;2023-12-22T08:04:53;7.20;99.90
14995;DHT22;7593;49.006;8.372;2023-12-22T08:07:20;7.20;99.90
14995;DHT22;7593;49.006;8.372;2023-12-22T08:09:47;7.20;99.90
14995;DHT22;7593;49.006;8.372;2023-12-22T08:12:16;7.20;99.90
14995;DHT22;7593;49.006;8.372;2023-12-22T08:14:43;7.20;99.90
14995;DHT22;7593;49.006;8.372;2023-12-22T08:17:10;7.20;99.90
14995;DHT22;7593;49.006;8.372;2023-12-22T08:19:39;7.30;99.90
14995;DHT22;7593;49.006;8.372;2023-12-22T08:22:09;7.30;99.90
14995;DHT22;7593;49.006;8.372;2023-12-22T08:24:36;7.40;99.90
14995;DHT22;7593;49.006;8.372;2023-12-22T08:27:03;7.40;99.90
14995;DHT22;7593;49.006;8.372;2023-12-22T08:29:30;7.50;99.90
14995;DHT22;7593;49.006;8.372;2023-12-22T08:31:57;7.60;99.90
14995;DHT22;7593;49.006;8.372;2023-12-22T08:34:23;7.70;99.90
14995;DHT22;7593;49.006;8.372;2023-12-22T08:36:50;7.90;99.90
14995;DHT22;7593;49.006;8.372;2023-12-22T08:39:18;8.00;99.90
14995;DHT22;7593;49.006;8.372;2023-12-22T08:41:45;8.10;99.90
14995;DHT22;7593;49.006;8.372;2023-12-22T08:44:13;8.20;99.90
14995;DHT22;7593;49.006;8.372;2023-12-22T08:46:41;8.30;99.90
14995;DHT22;7593;49.006;8.372;2023-12-22T08:49:07;8.30;99.90
14995;DHT22;7593;49.006;8.372;2023-12-22T08:51:34;8.40;99.90
14995;DHT22;7593;49.006;8.372;2023-12-22T08:54:01;8.50;99.90
14995;DHT22;7593;49.006;8.372;2023-12-22T08:56:30;8.60;99.90
14995;DHT22;7593;49.006;8.372;2023-12-22T08:58:57;8.60;99.90
14995;DHT22;7593;49.006;8.372;2023-12-22T09:01:25;8.70;99.90
14995;DHT22;7593;49.006;8.372;2023-12-22T09:03:52;8.70;99.90
14995;DHT22;7593;49.006;8.372;2023-12-22T09:06:21;8.70;99.90
14995;DHT22;7593;49.006;8.372;2023-12-22T09:08:48;8.80;99.90
14995;DHT22;7593;49.006;8.372;2023-12-22T09:11:17;8.80;99.90
14995;DHT22;7593;49.006;8.372;2023-12-22T09:13:45;8.90;99.90
14995;DHT22;7593;49.006;8.372;2023-12-22T09:16:12;8.90;99.90
14995;DHT22;7593;49.006;8.372;2023-12-22T09:18:40;8.90;99.90
14995;DHT22;7593;49.006;8.372;2023-12-22T09:21:07;8.90;99.90
14995;DHT22;7593;49.006;8.372;2023-12-22T09:23:34;9.00;99.90
14995;DHT22;7593;49.006;8.372;2023-12-22T09:26:01;9.00;99.90
14995;DHT22;7593;49.006;8.372;2023-12-22T09:28:30;9.10;99.90
14995;DHT22;7593;49.006;8.372;2023-12-22T09:30:58;9.10;99.90
14995;DHT22;7593;49.006;8.372;2023-12-22T09:33:24;9.10;99.90
14995;DHT22;7593;49.006;8.372;2023-12-22T09:35:52;9.10;99.90
14995;DHT22;7593;49.006;8.372;2023-12-22T09:38:18;9.10;99.90
14995;DHT22;7593;49.006;8.372;2023-12-22T09:40:46;9.20;99.90
14995;DHT22;7593;49.006;8.372;2023-12-22T09:43:14;9.20;99.90
14995;DHT22;7593;49.006;8.372;2023-12-22T09:45:41;9.20;99.90
14995;DHT22;7593;49.006;8.372;2023-12-22T09:48:11;9.20;99.90
14995;DHT22;7593;49.006;8.372;2023-12-22T09:50:42;9.20;99.90
14995;DHT22;7593;49.006;8.372;2023-12-22T09:53:10;9.20;99.90
14995;DHT22;7593;49.006;8.372;2023-12-22T09:55:42;9.20;99.90
14995;DHT22;7593;49.006;8.372;2023-12-22T09:58:10;9.30;99.90
14995;DHT22;7593;49.006;8.372;2023-12-22T10:00:37;9.30;99.90
14995;DHT22;7593;49.006;8.372;2023-12-22T10:03:06;9.30;99.90
14995;DHT22;7593;49.006;8.372;2023-12-22T10:05:34;9.30;99.90
14995;DHT22;7593;49.006;8.372;2023-12-22T10:08:02;9.30;99.90
14995;DHT22;7593;49.006;8.372;2023-12-22T10:10:30;9.20;99.90
14995;DHT22;7593;49.006;8.372;2023-12-22T10:12:56;9.30;99.90
14995;DHT22;7593;49.006;8.372;2023-12-22T10:15:26;9.30;99.90
14995;DHT22;7593;49.006;8.372;2023-12-22T10:17:53;9.30;99.90
14995;DHT22;7593;49.006;8.372;2023-12-22T10:20:20;9.30;99.90
14995;DHT22;7593;49.006;8.372;2023-12-22T10:22:49;9.30;99.90
14995;DHT22;7593;49.006;8.372;2023-12-22T10:25:18;9.20;99.90
14995;DHT22;7593;49.006;8.372;2023-12-22T10:27:46;9.00;99.90
14995;DHT22;7593;49.006;8.372;2023-12-22T10:30:13;8.80;99.90
14995;DHT22;7593;49.006;8.372;2023-12-22T10:32:41;8.60;99.90
14995;DHT22;7593;49.006;8.372;2023-12-22T10:35:08;8.40;99.90
14995;DHT22;7593;49.006;8.372;2023-12-22T10:37:35;8.30;99.90
14995;DHT22;7593;49.006;8.372;2023-12-22T10:40:06;8.20;99.90
14995;DHT22;7593;49.006;8.372;2023-12-22T10:42:35;8.10;99.90
14995;DHT22;7593;49.006;8.372;2023-12-22T10:45:02;8.00;99.90
14995;DHT22;7593;49.006;8.372;2023-12-22T10:47:29;8.00;99.90
14995;DHT22;7593;49.006;8.372;2023-12-22T10:49:56;7.90;99.90
14995;DHT22;7593;49.006;8.372;2023-12-22T10:52:23;7.90;99.90
14995;DHT22;7593;49.006;8.372;2023-12-22T10:54:50;7.80;99.90
14995;DHT22;7593;49.006;8.372;2023-12-22T10:57:18;7.80;99.90
14995;DHT22;7593;49.006;8.372;2023-12-22T10:59:46;7.70;99.90
14995;DHT22;7593;49.006;8.372;2023-12-22T11:02:16;7.70;99.90
14995;DHT22;7593;49.006;8.372;2023-12-22T11:04:47;7.60;99.90
14995;DHT22;7593;49.006;8.372;2023-12-22T11:07:14;7.60;99.90
14995;DHT22;7593;49.006;8.372;2023-12-22T11:09:44;7.60;99.90
14995;DHT22;7593;49.006;8.372;2023-12-22T11:12:13;7.60;99.90
14995;DHT22;7593;49.006;8.372;2023-12-22T11:14:42;7.60;99.90
14995;DHT22;7593;49.006;8.372;2023-12-22T11:17:11;7.50;99.90
14995;DHT22;7593;49.006;8.372;2023-12-22T11:19:39;7.50;99.90
14995;DHT22;7593;49.006;8.372;2023-12-22T11:22:07;7.50;99.90
14995;DHT22;7593;49.006;8.372;2023-12-22T11:24:36;7.60;99.90
14995;DHT22;7593;49.006;8.372;2023-12-22T11:27:06;7.50;99.90
14995;DHT22;7593;49.006;8.372;2023-12-22T11:29:33;7.50;99.90
14995;DHT22;7593;49.006;8.372;2023-12-22T11:32:04;7.50;99.90
14995;DHT22;7593;49.006;8.372;2023-12-22T11:34:32;7.60;99.90
14995;DHT22;7593;49.006;8.372;2023-12-22T11:37:02;7.60;99.90
14995;DHT22;7593;49.006;8.372;2023-12-22T11:39:30;7.60;99.90
14995;DHT22;7593;49.006;8.372;2023-12-22T11:41:58;7.60;99.90
14995;DHT22;7593;49.006;8.372;2023-12-22T11:44:26;7.60;99.90
14995;DHT22;7593;49.006;8.372;2023-12-22T11:47:05;7.60;99.90
14995;DHT22;7593;49.006;8.372;2023-12-22T11:49:32;7.60;99.90
14995;DHT22;7593;49.006;8.372;2023-12-22T11:52:08;7.60;99.90
14995;DHT22;7593;49.006;8.372;2023-12-22T11:54:45;7.60;99.90
14995;DHT22;7593;49.006;8.372;2023-12-22T11:57:32;7.70;99.90
14995;DHT22;7593;49.006;8.372;2023-12-22T12:00:02;7.70;99.90
14995;DHT22;7593;49.006;8.372;2023-12-22T12:02:33;7.70;99.90
14995;DHT22;7593;49.006;8.372;2023-12-22T12:05:01;7.70;99.90
14995;DHT22;7593;49.006;8.372;2023-12-22T12:07:42;7.70;99.90
14995;DHT22;7593;49.006;8.372;2023-12-22T12:13:04;7.80;99.90
14995;DHT22;7593;49.006;8.372;2023-12-22T12:15:33;7.80;99.90
14995;DHT22;7593;49.006;8.372;2023-12-22T12:18:02;7.80;99.90
14995;DHT22;7593;49.006;8.372;2023-12-22T12:20:29;7.80;99.90
14995;DHT22;7593;49.006;8.372;2023-12-22T12:22:56;7.90;99.90
14995;DHT22;7593;49.006;8.372;2023-12-22T12:25:23;7.90;99.90
14995;DHT22;7593;49.006;8.372;2023-12-22T12:27:51;7.90;99.90
14995;DHT22;7593;49.006;8.372;2023-12-22T12:30:27;7.90;99.90
14995;DHT22;7593;49.006;8.372;2023-12-22T12:32:54;7.90;99.90
14995;DHT22;7593;49.006;8.372;2023-12-22T12:35:29;7.90;99.90
14995;DHT22;7593;49.006;8.372;2023-12-22T12:37:57;7.90;99.90
14995;DHT22;7593;49.006;8.372;2023-12-22T12:40:24;7.90;99.90
14995;DHT22;7593;49.006;8.372;2023-12-22T12:42:52;8.00;99.90
14995;DHT22;7593;49.006;8.372;2023-12-22T12:45:22;8.00;99.90
14995;DHT22;7593;49.006;8.372;2023-12-22T12:47:55;8.10;99.90
14995;DHT22;7593;49.006;8.372;2023-12-22T12:50:22;8.10;99.90
14995;DHT22;7593;49.006;8.372;2023-12-22T12:52:51;8.10;99.90
14995;DHT22;7593;49.006;8.372;2023-12-22T12:55:20;8.20;99.90
14995;DHT22;7593;49.006;8.372;2023-12-22T12:57:48;8.20;99.90
14995;DHT22;7593;49.006;8.372;2023-12-22T13:00:16;8.20;99.90
14995;DHT22;7593;49.006;8.372;2023-12-22T13:02:43;8.20;99.90
14995;DHT22;7593;49.006;8.372;2023-12-22T13:05:20;8.30;99.90
14995;DHT22;7593;49.006;8.372;2023-12-22T13:07:47;8.30;99.90
14995;DHT22;7593;49.006;8.372;2023-12-22T13:10:21;8.40;99.90
14995;DHT22;7593;49.006;8.372;2023-12-22T13:12:48;8.40;99.90
14995;DHT22;7593;49.006;8.372;2023-12-22T13:15:19;8.40;99.90
14995;DHT22;7593;49.006;8.372;2023-12-22T13:17:46;8.40;99.90
14995;DHT22;7593;49.006;8.372;2023-12-22T13:20:13;8.50;99.90
14995;DHT22;7593;49.006;8.372;2023-12-22T13:22:41;8.50;99.90
14995;DHT22;7593;49.006;8.372;2023-12-22T13:25:08;8.50;99.90
14995;DHT22;7593;49.006;8.372;2023-12-22T13:27:45;8.60;99.90
14995;DHT22;7593;49.006;8.372;2023-12-22T13:30:13;8.60;99.90
14995;DHT22;7593;49.006;8.372;2023-12-22T13:32:40;8.60;99.90
14995;DHT22;7593;49.006;8.372;2023-12-22T13:35:07;8.70;99.90
14995;DHT22;7593;49.006;8.372;2023-12-22T13:37:40;8.70;99.90
14995;DHT22;7593;49.006;8.372;2023-12-22T13:40:08;8.70;99.90
14995;DHT22;7593;49.006;8.372;2023-12-22T13:42:36;8.70;99.90
14995;DHT22;7593;49.006;8.372;2023-12-22T13:45:10;8.70;99.90
14995;DHT22;7593;49.006;8.372;2023-12-22T13:47:40;8.70;99.90
14995;DHT22;7593;49.006;8.372;2023-12-22T13:50:13;8.70;99.90
14995;DHT22;7593;49.006;8.372;2023-12-22T13:52:41;8.70;99.90
14995;DHT22;7593;49.006;8.372;2023-12-22T13:55:10;8.70;99.90
14995;DHT22;7593;49.006;8.372;2023-12-22T13:57:37;8.70;99.90
14995;DHT22;7593;49.006;8.372;2023-12-22T14:00:27;8.80;99.90
14995;DHT22;7593;49.006;8.372;2023-12-22T14:02:54;8.80;99.90
14995;DHT22;7593;49.006;8.372;2023-12-22T14:05:22;8.80;99.90
14995;DHT22;7593;49.006;8.372;2023-12-22T14:07:49;8.80;99.90
14995;DHT22;7593;49.006;8.372;2023-12-22T14:10:16;8.80;99.90
14995;DHT22;7593;49.006;8.372;2023-12-22T14:12:43;8.80;99.90
14995;DHT22;7593;49.006;8.372;2023-12-22T14:15:10;8.80;99.90
14995;DHT22;7593;49.006;8.372;2023-12-22T14:17:39;8.80;99.90
14995;DHT22;7593;49.006;8.372;2023-12-22T14:20:08;8.80;99.90
14995;DHT22;7593;49.006;8.372;2023-12-22T14:22:35;8.90;99.90
14995;DHT22;7593;49.006;8.372;2023-12-22T14:25:02;8.90;99.90
14995;DHT22;7593;49.006;8.372;2023-12-22T14:27:29;8.90;99.90
14995;DHT22;7593;49.006;8.372;2023-12-22T14:29:55;8.90;99.90
14995;DHT22;7593;49.006;8.372;2023-12-22T14:32:22;8.90;99.90
14995;DHT22;7593;49.006;8.372;2023-12-22T14:34:50;8.90;99.90
14995;DHT22;7593;49.006;8.372;2023-12-22T14:37:17;8.90;99.90
14995;DHT22;7593;49.006;8.372;2023-12-22T14:39:45;8.90;99.90
14995;DHT22;7593;49.006;8.372;2023-12-22T14:42:12;8.90;99.90
14995;DHT22;7593;49.006;8.372;2023-12-22T14:44:39;8.90;99.90
14995;DHT22;7593;49.006;8.372;2023-12-22T14:47:05;8.90;99.90
14995;DHT22;7593;49.006;8.372;2023-12-22T14:49:32;8.90;99.90
14995;DHT22;7593;49.006;8.372;2023-12-22T14:52:00;9.00;99.90
14995;DHT22;7593;49.006;8.372;2023-12-22T14:54:27;8.90;99.90
14995;DHT22;7593;49.006;8.372;2023-12-22T14:56:54;8.90;99.90
14995;DHT22;7593;49.006;8.372;2023-12-22T14:59:20;8.90;99.90
14995;DHT22;7593;49.006;8.372;2023-12-22T15:01:47;8.90;99.90
14995;DHT22;7593;49.006;8.372;2023-12-22T15:04:14;8.90;99.90
14995;DHT22;7593;49.006;8.372;2023-12-22T15:06:41;9.00;99.90
14995;DHT22;7593;49.006;8.372;2023-12-22T15:09:10;8.90;99.90
14995;DHT22;7593;49.006;8.372;2023-12-22T15:11:41;8.90;99.90
14995;DHT22;7593;49.006;8.372;2023-12-22T15:14:08;8.90;99.90
14995;DHT22;7593;49.006;8.372;2023-12-22T15:16:38;8.80;99.90
14995;DHT22;7593;49.006;8.372;2023-12-22T15:19:05;8.90;99.90
14995;DHT22;7593;49.006;8.372;2023-12-22T15:21:32;8.80;99.90
14995;DHT22;7593;49.006;8.372;2023-12-22T15:23:59;8.90;99.90
14995;DHT22;7593;49.006;8.372;2023-12-22T15:26:27;8.90;99.90
14995;DHT22;7593;49.006;8.372;2023-12-22T15:28:54;8.90;99.90
14995;DHT22;7593;49.006;8.372;2023-12-22T15:31:21;8.90;99.90
14995;DHT22;7593;49.006;8.372;2023-12-22T15:33:47;8.90;99.90
14995;DHT22;7593;49.006;8.372;2023-12-22T15:36:16;8.90;99.90
14995;DHT22;7593;49.006;8.372;2023-12-22T15:38:44;8.90;99.90
14995;DHT22;7593;49.006;8.372;2023-12-22T15:41:11;8.90;99.90
14995;DHT22;7593;49.006;8.372;2023-12-22T15:43:39;8.90;99.90
14995;DHT22;7593;49.006;8.372;2023-12-22T15:46:07;8.90;99.90
14995;DHT22;7593;49.006;8.372;2023-12-22T15:48:34;8.90;99.90
14995;DHT22;7593;49.006;8.372;2023-12-22T15:51:05;8.90;99.90
14995;DHT22;7593;49.006;8.372;2023-12-22T15:53:32;8.90;99.90
14995;DHT22;7593;49.006;8.372;2023-12-22T15:56:03;8.90;99.90
14995;DHT22;7593;49.006;8.372;2023-12-22T15:58:31;8.90;99.90
14995;DHT22;7593;49.006;8.372;2023-12-22T16:00:59;9.00;99.90
14995;DHT22;7593;49.006;8.372;2023-12-22T16:03:26;9.00;99.90
14995;DHT22;7593;49.006;8.372;2023-12-22T16:05:53;8.90;99.90
14995;DHT22;7593;49.006;8.372;2023-12-22T16:08:20;8.90;99.90
14995;DHT22;7593;49.006;8.372;2023-12-22T16:10:47;8.90;99.90
14995;DHT22;7593;49.006;8.372;2023-12-22T16:13:14;8.90;99.90